KSIY/SIY METAR and TAF weather

Enter ICAO airport designator
Station Type Date Time Source
KSIY METAR 2019/12/05 22:53 UTC NOAA

KSIY 052253Z AUTO 36007KT 10SM CLR 11/03 A3003 RMK AO2 SLP180 T01110033


Station Type Date Time Source
KSIY Decoded METAR 2019/12/05 22:53 UTC NOAA

MONTAGUE SISKIYOU COUNTY, CA, United States (KSIY) 41-46N 122-28W
Dec 05, 2019 - 05:53 PM EST / 2019.12.05 2253 UTC
Wind: from the N (360 degrees) at 8 MPH (7 KT):0
Visibility: 10 mile(s):0
Sky conditions: clear
Temperature: 52.0 F (11.1 C)
Dew Point: 37.9 F (3.3 C)
Relative Humidity: 58%
Pressure (altimeter): 30.03 in. Hg (1016 hPa)
ob: KSIY 052253Z AUTO 36007KT 10SM CLR 11/03 A3003 RMK AO2 SLP180 T01110033
cycle: 23

Station Type Date Time Source
KSIY TAF UTC NOAA

Error!

Example: see airport list